Time;durP1;ratioP1;P1;durP2;ratioP2;P2;SDS_P1;SDS_P2;PMS_P1;PMS_P2;Temp;Humidity;BMP_temperature;BMP_pressure;BME280_temperature;BME280_humidity;BME280_pressure;Samples;Min_cycle;Max_cycle;Signal;HPM_P1;HPM_P2
2021/12/24 00:01:38;;;;;;;54.05;24.83;;;;;;;3.51;53.38;98126.13;4494188;31;20201;-82
2021/12/24 00:04:04;;;;;;;56.78;24.75;;;;;;;3.52;53.47;98151.28;4477943;32;20122;-83
2021/12/24 00:06:30;;;;;;;53.20;24.65;;;;;;;3.53;53.33;98160.75;4499682;31;20487;-84
2021/12/24 00:08:55;;;;;;;53.90;24.65;;;;;;;3.59;53.50;98157.94;4475308;31;20157;-83
2021/12/24 00:11:21;;;;;;;53.78;25.73;;;;;;;3.59;53.29;98168.34;4496809;31;20100;-83
2021/12/24 00:13:49;;;;;;;50.95;23.73;;;;;;;3.58;53.19;98151.03;4495154;31;20080;-80
2021/12/24 00:16:25;;;;;;;52.55;24.05;;;;;;;3.63;52.77;98124.81;4491278;31;20080;-82
2021/12/24 00:19:13;;;;;;;48.35;22.62;;;;;;;3.62;52.23;98121.38;4499731;31;20116;-80
2021/12/24 00:35:22;;;;;;;49.70;23.87;;;;;;;3.79;52.11;98076.44;4497137;31;20119;-80
2021/12/24 00:37:48;;;;;;;55.25;25.50;;;;;;;3.72;52.27;98080.19;4494738;31;20139;-80
2021/12/24 00:40:19;;;;;;;49.60;23.95;;;;;;;3.62;52.71;98073.66;4490529;31;20142;-83
2021/12/24 00:42:54;;;;;;;55.95;25.80;;;;;;;3.78;52.60;98061.72;4485321;31;20249;-82
2021/12/24 00:45:22;;;;;;;52.50;25.12;;;;;;;3.76;52.41;98062.69;4491714;31;20093;-83
2021/12/24 00:47:48;;;;;;;56.37;26.45;;;;;;;3.68;52.51;98061.22;4479742;32;20088;-82
2021/12/24 00:50:18;;;;;;;57.35;26.20;;;;;;;3.72;52.35;98069.78;4482960;31;20123;-82
2021/12/24 00:52:48;;;;;;;53.28;25.00;;;;;;;3.60;52.67;98054.62;4488795;31;20131;-83
2021/12/24 00:55:15;;;;;;;48.22;24.12;;;;;;;3.68;52.60;98057.78;4497081;31;20084;-82
2021/12/24 00:57:44;;;;;;;56.28;25.67;;;;;;;3.76;52.42;98052.28;4493811;31;20080;-82
2021/12/24 01:00:16;;;;;;;55.50;26.40;;;;;;;3.72;52.66;98043.72;4476515;32;20126;-82
2021/12/24 01:02:42;;;;;;;53.85;25.95;;;;;;;3.79;52.79;98039.97;4499066;31;20233;-83
2021/12/24 01:05:09;;;;;;;54.22;25.05;;;;;;;3.79;52.76;98028.72;4475921;31;20121;-83
2021/12/24 01:07:35;;;;;;;49.80;25.23;;;;;;;3.86;52.74;98004.97;4480319;32;20156;-83
2021/12/24 01:10:01;;;;;;;54.08;25.95;;;;;;;3.89;52.60;97993.56;4497917;31;20103;-84
2021/12/24 01:12:26;;;;;;;55.33;25.48;;;;;;;3.87;52.76;97998.84;4490882;31;20092;-83
2021/12/24 01:14:52;;;;;;;57.15;26.15;;;;;;;3.87;52.89;97987.56;4486267;31;20092;-90
2021/12/24 01:20:12;;;;;;;54.55;25.90;;;;;;;3.80;52.88;97993.94;4493510;31;20131;-83
2021/12/24 01:23:29;;;;;;;52.15;25.85;;;;;;;3.88;53.21;97950.16;4500737;31;20104;-83
2021/12/24 01:39:02;;;;;;;53.95;26.70;;;;;;;3.80;53.55;97934.00;4488136;32;20118;-86
2021/12/24 01:44:27;;;;;;;53.60;25.60;;;;;;;3.78;53.63;97944.47;4423709;32;20128;-84
2021/12/24 01:46:57;;;;;;;57.20;26.45;;;;;;;3.78;53.64;97990.53;4423842;32;20086;-83
2021/12/24 01:49:22;;;;;;;55.75;25.85;;;;;;;3.86;53.71;97965.00;4423601;32;20529;-83
2021/12/24 01:51:48;;;;;;;53.80;25.85;;;;;;;3.83;53.64;97949.53;4423507;32;20187;-81
2021/12/24 01:54:14;;;;;;;59.45;27.60;;;;;;;3.91;53.27;97906.59;4410864;32;20140;-81
2021/12/24 01:56:42;;;;;;;53.65;25.62;;;;;;;3.99;53.08;97908.88;4423623;32;20118;-81
2021/12/24 01:59:08;;;;;;;56.15;25.95;;;;;;;3.86;53.47;97928.53;4410792;32;20077;-81
2021/12/24 02:01:33;;;;;;;56.58;27.42;;;;;;;3.79;53.52;97930.56;4423318;32;20491;-81
2021/12/24 02:03:59;;;;;;;58.30;26.02;;;;;;;3.79;53.71;97927.13;4410763;32;20113;-81
2021/12/24 02:06:24;;;;;;;51.58;25.52;;;;;;;3.76;53.59;97901.19;4423479;32;20284;-81
2021/12/24 02:08:50;;;;;;;56.75;26.52;;;;;;;3.79;53.80;97888.88;4410611;32;20109;-81
2021/12/24 02:11:15;;;;;;;57.50;27.83;;;;;;;3.78;53.61;97907.19;4423502;32;20129;-81
2021/12/24 02:13:41;;;;;;;58.22;27.98;;;;;;;3.74;53.55;97924.69;4410933;32;20121;-81
2021/12/24 02:29:24;;;;;;;57.85;26.20;;;;;;;3.81;54.17;97873.19;4487838;32;20462;-80
2021/12/24 02:31:50;;;;;;;54.33;26.87;;;;;;;3.88;53.95;97853.75;4487593;32;20096;-80
2021/12/24 02:34:15;;;;;;;51.65;25.62;;;;;;;3.84;53.77;97883.47;4487836;32;20150;-79
2021/12/24 02:36:40;;;;;;;57.53;26.15;;;;;;;3.74;53.67;97860.41;4487745;32;20356;-81
2021/12/24 02:39:06;;;;;;;60.33;27.60;;;;;;;3.81;54.08;97861.00;4487392;32;20110;-79
2021/12/24 02:41:31;;;;;;;58.17;28.02;;;;;;;3.80;53.95;97864.50;4487688;32;20101;-81
2021/12/24 02:43:57;;;;;;;56.37;26.65;;;;;;;3.76;53.92;97842.09;4487627;32;20108;-81
2021/12/24 02:46:33;;;;;;;60.20;27.50;;;;;;;3.72;53.90;97817.09;4487529;32;20096;-81
2021/12/24 02:49:11;;;;;;;58.47;27.83;;;;;;;3.83;53.81;97806.25;4487716;32;20080;-80
2021/12/24 02:54:20;;;;;;;53.90;26.30;;;;;;;3.84;53.84;97797.50;4487585;32;20169;-80
2021/12/24 02:56:57;;;;;;;53.33;26.05;;;;;;;3.87;53.54;97811.25;4487485;32;20136;-81
2021/12/24 02:59:27;;;;;;;60.33;25.83;;;;;;;3.81;53.52;97806.31;4487548;32;20077;-81
2021/12/24 03:01:54;;;;;;;56.20;27.27;;;;;;;3.77;53.56;97809.94;4487351;32;20104;-81
2021/12/24 03:04:20;;;;;;;58.97;28.62;;;;;;;3.82;53.73;97814.94;4487481;32;20143;-81
2021/12/24 03:06:48;;;;;;;53.30;25.30;;;;;;;3.86;53.73;97819.13;4487334;32;20158;-80
2021/12/24 03:09:16;;;;;;;55.83;27.02;;;;;;;3.91;53.71;97840.62;4491111;31;20148;-80
2021/12/24 03:11:43;;;;;;;58.38;27.27;;;;;;;3.90;54.35;97852.81;4503444;31;20175;-80
2021/12/24 03:14:09;;;;;;;59.88;27.27;;;;;;;3.90;54.93;97880.59;4503415;31;20104;-80
2021/12/24 03:16:36;;;;;;;60.30;28.45;;;;;;;3.79;55.52;97862.84;4503473;31;20084;-81
2021/12/24 03:19:02;;;;;;;54.45;27.98;;;;;;;3.65;55.99;97865.16;4503370;31;20160;-80
2021/12/24 03:21:34;;;;;;;59.30;29.65;;;;;;;3.71;56.45;97868.38;4503361;31;20100;-81
2021/12/24 03:26:29;;;;;;;57.70;27.15;;;;;;;3.68;57.15;97859.81;4503152;31;20088;-81
2021/12/24 03:28:54;;;;;;;54.63;26.33;;;;;;;3.84;57.37;97831.38;4503198;31;20092;-81
2021/12/24 03:31:19;;;;;;;54.38;28.10;;;;;;;3.83;57.38;97825.31;4502816;31;20096;-81
2021/12/24 03:33:45;;;;;;;52.97;26.42;;;;;;;3.87;57.69;97810.41;4503067;31;20128;-81
2021/12/24 03:36:10;;;;;;;57.70;27.40;;;;;;;3.84;57.59;97818.34;4503010;31;20073;-81
2021/12/24 03:38:37;;;;;;;53.45;26.17;;;;;;;3.84;57.47;97831.38;4488672;31;20126;-80
2021/12/24 03:41:03;;;;;;;56.17;27.45;;;;;;;3.79;57.29;97828.97;4502849;31;20576;-81
2021/12/24 03:43:29;;;;;;;52.88;26.55;;;;;;;3.93;57.80;97825.75;4503012;31;20091;-78
2021/12/24 03:46:05;;;;;;;58.35;27.90;;;;;;;3.93;58.21;97808.38;4502433;31;20114;-80
2021/12/24 03:48:52;;;;;;;56.55;27.67;;;;;;;4.00;58.48;97808.97;4503162;31;20541;-80
2021/12/24 03:51:28;;;;;;;58.87;28.38;;;;;;;3.98;58.78;97797.75;4503027;31;20091;-80
2021/12/24 03:56:39;;;;;;;60.15;27.52;;;;;;;4.14;58.84;97782.28;4502973;31;20115;-81
2021/12/24 03:59:05;;;;;;;57.23;27.03;;;;;;;4.21;58.76;97770.66;4488857;31;20129;-81
2021/12/24 04:01:31;;;;;;;60.78;27.92;;;;;;;4.19;59.03;97769.91;4503187;31;20685;-80
2021/12/24 04:03:57;;;;;;;58.87;27.37;;;;;;;4.20;58.86;97758.53;4503111;31;20092;-80
2021/12/24 04:06:22;;;;;;;55.92;27.55;;;;;;;4.16;58.81;97764.81;4503141;31;20091;-80
2021/12/24 04:08:48;;;;;;;58.00;27.42;;;;;;;4.13;58.79;97771.03;4502666;31;20428;-80
2021/12/24 04:11:13;;;;;;;58.22;27.62;;;;;;;4.23;58.22;97745.37;4502765;31;20089;-80
2021/12/24 04:13:39;;;;;;;55.67;27.08;;;;;;;4.24;58.28;97730.56;4502879;31;20096;-79
2021/12/24 04:16:06;;;;;;;56.65;27.67;;;;;;;4.18;58.22;97731.69;4475325;31;20114;-80
2021/12/24 04:18:42;;;;;;;53.35;26.70;;;;;;;4.17;58.38;97721.34;4502719;31;20163;-81
2021/12/24 04:26:37;;;;;;;52.28;26.50;;;;;;;4.11;58.18;97710.28;4502884;31;20118;-81
2021/12/24 04:29:03;;;;;;;52.95;26.37;;;;;;;4.13;58.24;97708.47;4502704;31;20088;-80
2021/12/24 04:31:40;;;;;;;58.58;27.45;;;;;;;4.12;58.39;97716.34;4502621;31;20155;-80
2021/12/24 04:34:06;;;;;;;53.58;26.42;;;;;;;4.10;58.39;97719.00;4489662;31;20124;-81
2021/12/24 05:03:35;;;;;;;54.20;26.80;;;;;;;4.16;58.77;97712.69;4486539;32;20494;-81
2021/12/24 05:06:51;;;;;;;53.08;26.40;;;;;;;4.00;58.99;97712.53;4486466;32;20495;-80
2021/12/24 05:08:54;;;;;;;52.65;25.70;;;;;;;4.10;58.90;97711.19;4468749;32;20147;-80
2021/12/24 05:11:21;;;;;;;56.30;27.52;;;;;;;4.09;58.96;97703.44;4486747;32;20423;-80
2021/12/24 05:13:51;;;;;;;53.85;26.70;;;;;;;4.01;59.18;97695.97;4486222;32;20096;-80
2021/12/24 05:21:42;;;;;;;53.97;25.62;;;;;;;4.05;59.14;97701.91;4421813;32;20163;-80
2021/12/24 05:24:16;;;;;;;54.83;25.30;;;;;;;4.14;58.89;97702.31;4421767;32;20125;-80
2021/12/24 05:26:48;;;;;;;49.28;25.20;;;;;;;4.20;58.79;97702.97;4409031;32;20105;-80
2021/12/24 05:29:14;;;;;;;51.80;24.77;;;;;;;4.23;58.72;97690.63;4408964;32;20109;-80
2021/12/24 05:31:40;;;;;;;52.67;25.08;;;;;;;4.19;58.98;97683.00;4421631;32;20587;-80
2021/12/24 05:34:06;;;;;;;56.28;26.50;;;;;;;4.31;58.80;97683.28;4421745;32;20220;-80
2021/12/24 05:36:31;;;;;;;54.30;26.52;;;;;;;4.29;58.85;97682.53;4421591;32;20106;-81
2021/12/24 05:38:57;;;;;;;53.53;25.42;;;;;;;4.31;58.94;97683.28;4408922;32;20374;-80
2021/12/24 05:41:23;;;;;;;64.78;26.17;;;;;;;4.37;58.77;97684.78;4421518;32;20117;-80
2021/12/24 05:43:49;;;;;;;52.38;24.48;;;;;;;4.37;58.88;97689.16;4421603;32;20145;-81
2021/12/24 05:46:15;;;;;;;51.30;24.92;;;;;;;4.49;58.67;97694.59;4422239;32;20133;-80
2021/12/24 05:48:40;;;;;;;51.75;25.05;;;;;;;4.44;58.61;97698.34;4421804;32;20101;-80
2021/12/24 05:51:06;;;;;;;53.55;25.02;;;;;;;4.51;58.24;97707.59;4421707;32;20132;-80
2021/12/24 05:53:31;;;;;;;51.75;24.80;;;;;;;4.39;58.54;97697.75;4421758;32;20266;-79
2021/12/24 05:55:57;;;;;;;45.53;23.92;;;;;;;4.41;58.71;97701.13;4423540;32;20133;-80
2021/12/24 05:58:23;;;;;;;48.55;23.58;;;;;;;4.50;58.36;97704.13;4448623;32;20110;-80
2021/12/24 06:00:48;;;;;;;48.28;24.12;;;;;;;4.45;58.37;97705.25;4487736;32;20151;-78
2021/12/24 06:03:15;;;;;;;44.88;23.30;;;;;;;4.51;58.18;97704.97;4487924;32;20095;-80
2021/12/24 06:05:41;;;;;;;46.85;24.50;;;;;;;4.58;58.07;97713.34;4487944;32;20123;-80
2021/12/24 06:08:07;;;;;;;53.55;25.58;;;;;;;4.60;57.84;97721.97;4487866;32;20115;-81
2021/12/24 06:10:33;;;;;;;48.58;23.55;;;;;;;4.62;57.92;97720.97;4473574;32;20077;-81
2021/12/24 06:12:58;;;;;;;53.53;24.08;;;;;;;4.64;57.75;97719.12;4473652;32;20163;-81
2021/12/24 06:15:26;;;;;;;51.83;24.92;;;;;;;4.65;58.00;97714.75;4460577;32;20096;-81
2021/12/24 06:17:55;;;;;;;45.88;23.08;;;;;;;4.70;57.93;97694.50;4487854;32;20424;-81
2021/12/24 06:20:22;;;;;;;45.55;22.70;;;;;;;4.75;57.79;97699.50;4473606;32;20110;-81
2021/12/24 06:22:47;;;;;;;46.20;22.62;;;;;;;4.69;57.72;97685.84;4487880;32;20104;-80
2021/12/24 06:25:14;;;;;;;49.55;24.10;;;;;;;4.77;57.49;97690.69;4473675;32;20096;-81
2021/12/24 06:27:39;;;;;;;47.10;22.80;;;;;;;4.75;57.50;97689.88;4487738;32;20093;-81
2021/12/24 06:30:08;;;;;;;45.53;22.83;;;;;;;4.69;57.72;97687.59;4487684;32;20398;-80
2021/12/24 06:32:34;;;;;;;44.78;21.55;;;;;;;4.69;57.17;97687.59;4473375;32;20116;-81
2021/12/24 06:34:59;;;;;;;43.35;20.80;;;;;;;4.68;57.10;97684.13;4487696;32;20466;-81
2021/12/24 06:37:25;;;;;;;43.08;22.35;;;;;;;4.70;57.17;97681.47;4487646;32;20142;-80
2021/12/24 06:39:51;;;;;;;42.75;22.02;;;;;;;4.62;57.66;97670.56;4487272;32;20131;-81
2021/12/24 06:42:16;;;;;;;46.25;21.27;;;;;;;4.60;57.94;97670.63;4473346;32;20127;-81
2021/12/24 06:44:42;;;;;;;42.67;21.15;;;;;;;4.76;57.65;97672.50;4487652;32;20347;-81
2021/12/24 06:47:07;;;;;;;46.72;20.75;;;;;;;4.79;57.48;97670.59;4460613;32;20136;-81
2021/12/24 06:49:33;;;;;;;41.60;20.00;;;;;;;4.84;57.37;97670.34;4487775;32;20076;-81
2021/12/24 06:51:59;;;;;;;40.63;19.52;;;;;;;4.96;56.65;97661.06;4487752;32;20448;-80
2021/12/24 06:54:25;;;;;;;40.25;20.77;;;;;;;4.88;56.78;97664.88;4487888;32;20133;-81
2021/12/24 06:56:51;;;;;;;41.72;19.37;;;;;;;4.28;58.17;97664.34;4487776;32;20107;-81
2021/12/24 06:59:17;;;;;;;46.55;21.12;;;;;;;4.73;57.23;97650.84;4487725;32;20336;-81
2021/12/24 07:01:42;;;;;;;45.53;21.92;;;;;;;4.84;57.21;97649.47;4487740;32;20156;-81
2021/12/24 07:04:08;;;;;;;45.00;20.75;;;;;;;4.89;57.14;97650.09;4487688;32;20419;-81
2021/12/24 07:06:34;;;;;;;38.00;19.33;;;;;;;4.85;57.56;97656.41;4487178;32;20084;-80
2021/12/24 07:08:59;;;;;;;40.30;18.83;;;;;;;4.82;57.81;97659.16;4487575;32;20072;-80
2021/12/24 07:11:25;;;;;;;35.90;17.75;;;;;;;4.78;58.53;97657.59;4487611;32;20108;-81
2021/12/24 07:13:51;;;;;;;35.90;16.92;;;;;;;4.86;58.89;97668.50;4487621;32;20214;-79
2021/12/24 07:16:17;;;;;;;37.42;16.90;;;;;;;5.00;58.72;97666.03;4487545;32;20496;-80
2021/12/24 07:18:42;;;;;;;34.90;16.33;;;;;;;5.01;58.43;97669.53;4487606;32;20111;-80
2021/12/24 07:21:08;;;;;;;32.05;15.38;;;;;;;5.02;58.44;97665.97;4473298;32;20101;-80
2021/12/24 07:23:33;;;;;;;32.80;14.65;;;;;;;5.18;58.47;97653.84;4487721;32;20092;-80
2021/12/24 07:25:59;;;;;;;31.10;14.25;;;;;;;5.25;57.98;97656.97;4473268;32;20151;-80
2021/12/24 07:28:24;;;;;;;31.80;14.18;;;;;;;5.24;57.91;97663.13;4487593;32;20103;-80
2021/12/24 07:30:50;;;;;;;27.48;13.77;;;;;;;5.33;58.23;97644.34;4487540;32;20145;-81
2021/12/24 07:33:15;;;;;;;29.50;14.82;;;;;;;5.27;57.97;97644.69;4487608;32;20172;-81
2021/12/24 07:35:42;;;;;;;28.87;14.02;;;;;;;5.27;58.13;97635.09;4487569;32;20135;-81
2021/12/24 07:38:09;;;;;;;34.43;14.87;;;;;;;5.26;58.05;97662.13;4487368;32;20081;-81
2021/12/24 07:40:36;;;;;;;33.53;14.95;;;;;;;5.24;58.33;97679.62;4486990;32;20152;-81
2021/12/24 07:43:01;;;;;;;33.33;15.80;;;;;;;5.40;58.24;97652.75;4487336;32;20160;-82
2021/12/24 07:45:27;;;;;;;31.45;14.70;;;;;;;5.31;58.16;97648.81;4487311;32;20435;-80
2021/12/24 07:48:09;;;;;;;28.52;12.88;;;;;;;5.61;57.72;97627.25;4487095;32;20136;-80
2021/12/24 07:53:00;;;;;;;27.90;13.07;;;;;;;5.59;57.04;97626.50;4487096;32;20084;-80
2021/12/24 07:55:25;;;;;;;26.02;12.20;;;;;;;5.75;56.48;97622.13;4487175;32;20108;-81
2021/12/24 07:57:52;;;;;;;26.30;12.68;;;;;;;5.97;55.74;97621.00;4487019;32;20119;-81
2021/12/24 08:00:19;;;;;;;26.65;11.68;;;;;;;5.97;55.60;97636.69;4487048;32;20133;-81
2021/12/24 08:02:44;;;;;;;24.12;11.57;;;;;;;6.09;55.29;97631.63;4487114;32;20096;-80
2021/12/24 08:05:13;;;;;;;25.75;11.77;;;;;;;6.20;54.52;97636.28;4487003;32;20084;-80
2021/12/24 08:07:38;;;;;;;23.00;11.55;;;;;;;6.14;54.39;97622.69;4472842;32;20076;-81
2021/12/24 08:10:04;;;;;;;25.23;11.15;;;;;;;6.47;54.10;97620.81;4487030;32;20127;-84
2021/12/24 08:12:30;;;;;;;20.70;9.23;;;;;;;6.54;53.80;97620.47;4486977;32;20734;-84
2021/12/24 08:14:55;;;;;;;21.30;9.40;;;;;;;6.66;52.96;97618.00;4487062;32;20116;-83
2021/12/24 08:17:21;;;;;;;24.45;9.75;;;;;;;6.78;52.71;97610.34;4485820;32;20122;-81
2021/12/24 08:19:46;;;;;;;20.60;9.00;;;;;;;6.96;52.07;97624.16;4486636;32;20085;-82
2021/12/24 08:22:12;;;;;;;21.35;8.10;;;;;;;6.91;51.86;97616.56;4486989;32;20141;-82
2021/12/24 08:24:38;;;;;;;20.90;9.73;;;;;;;7.13;51.03;97602.19;4486876;32;20452;-82
2021/12/24 08:27:05;;;;;;;22.08;8.75;;;;;;;7.18;51.38;97610.63;4486926;32;20145;-84
2021/12/24 08:29:30;;;;;;;19.10;8.45;;;;;;;7.07;51.07;97596.41;4486914;32;20097;-87
2021/12/24 08:31:56;;;;;;;20.33;9.05;;;;;;;7.47;51.12;97593.16;4486852;32;20330;-84
2021/12/24 08:34:22;;;;;;;21.08;9.18;;;;;;;7.58;51.93;97579.41;4472564;32;20084;-86
2021/12/24 08:36:49;;;;;;;20.20;8.52;;;;;;;7.84;51.74;97583.00;4486697;32;20107;-83
2021/12/24 08:39:17;;;;;;;19.48;8.68;;;;;;;7.81;51.90;97576.19;4486467;32;20157;-85
2021/12/24 08:41:43;;;;;;;18.60;8.27;;;;;;;7.99;51.40;97581.19;4472893;32;20156;-86
2021/12/24 08:44:09;;;;;;;19.33;8.52;;;;;;;7.99;50.95;97584.66;4486761;32;20172;-86
2021/12/24 08:46:36;;;;;;;19.90;8.95;;;;;;;8.19;50.91;97569.41;4486922;32;20450;-86
2021/12/24 08:49:02;;;;;;;20.20;9.02;;;;;;;8.19;50.77;97574.66;4486900;32;20103;-86
2021/12/24 08:51:28;;;;;;;20.83;8.60;;;;;;;8.25;50.61;97572.50;4486819;32;20117;-86
2021/12/24 08:53:53;;;;;;;17.10;7.62;;;;;;;8.32;50.51;97561.59;4472582;32;20424;-86
2021/12/24 08:56:21;;;;;;;17.45;7.10;;;;;;;8.45;50.14;97573.03;4486464;32;20084;-87
2021/12/24 08:58:47;;;;;;;16.83;7.20;;;;;;;8.32;49.48;97579.97;4486563;32;20120;-87
2021/12/24 09:01:12;;;;;;;17.02;7.03;;;;;;;8.50;48.78;97578.81;4472023;31;20499;-86
2021/12/24 09:03:38;;;;;;;16.45;7.30;;;;;;;8.67;48.02;97580.31;4487369;32;20084;-86
2021/12/24 09:06:03;;;;;;;17.05;7.90;;;;;;;8.60;48.11;97576.44;4486470;32;20102;-86
2021/12/24 09:08:28;;;;;;;17.25;7.07;;;;;;;8.72;48.46;97567.72;4486284;32;20352;-87
2021/12/24 09:10:54;;;;;;;17.98;7.93;;;;;;;8.84;48.44;97580.03;4486401;32;20139;-87
2021/12/24 09:13:19;;;;;;;18.45;8.55;;;;;;;8.82;48.63;97576.66;4472100;32;20119;-88
2021/12/24 09:15:45;;;;;;;19.40;8.38;;;;;;;8.89;48.54;97581.53;4492179;31;20492;-86
2021/12/24 09:18:10;;;;;;;18.65;8.50;;;;;;;8.91;49.15;97577.84;4490362;31;20443;-88
2021/12/24 09:20:40;;;;;;;19.20;8.95;;;;;;;8.65;49.44;97577.81;4491269;31;20132;-88
2021/12/24 09:23:07;;;;;;;16.58;7.40;;;;;;;8.55;49.59;97578.50;4493804;31;20100;-88
2021/12/24 09:25:33;;;;;;;17.85;8.38;;;;;;;8.60;49.15;97577.25;4491426;31;20163;-88
2021/12/24 09:27:58;;;;;;;17.50;8.15;;;;;;;8.67;48.70;97567.19;4491361;31;20345;-86
2021/12/24 09:30:25;;;;;;;17.08;7.65;;;;;;;8.71;48.92;97549.44;4472955;31;20126;-82
2021/12/24 09:32:50;;;;;;;17.40;6.53;;;;;;;8.61;49.52;97552.69;4491563;31;20087;-85
2021/12/24 09:35:16;;;;;;;17.50;7.15;;;;;;;8.76;48.44;97540.31;4482410;32;20153;-82
2021/12/24 09:37:42;;;;;;;15.60;6.70;;;;;;;8.96;47.94;97543.38;4496990;31;20371;-85
2021/12/24 09:40:10;;;;;;;16.17;6.87;;;;;;;9.24;46.90;97543.19;4490592;31;20104;-84
2021/12/24 09:42:35;;;;;;;15.63;6.43;;;;;;;9.35;47.28;97537.19;4500579;31;20123;-84
2021/12/24 09:45:03;;;;;;;14.02;6.47;;;;;;;9.49;46.54;97530.97;4492492;31;20371;-83
2021/12/24 09:47:28;;;;;;;16.45;6.72;;;;;;;9.48;46.03;97529.28;4484636;31;20116;-82
2021/12/24 09:49:53;;;;;;;15.77;7.20;;;;;;;9.63;46.22;97525.56;4492461;31;20088;-82
2021/12/24 09:52:20;;;;;;;15.68;6.57;;;;;;;9.63;46.32;97525.56;4486187;31;20129;-82
2021/12/24 09:54:47;;;;;;;14.55;6.55;;;;;;;9.50;46.19;97529.16;4491158;31;20076;-84
2021/12/24 09:57:13;;;;;;;17.77;7.75;;;;;;;9.60;45.72;97517.91;4497053;31;20100;-83
2021/12/24 09:59:38;;;;;;;18.02;8.02;;;;;;;9.61;45.72;97509.06;4496868;31;20099;-83
2021/12/24 10:02:08;;;;;;;16.87;7.53;;;;;;;9.72;45.33;97500.41;4477331;32;20446;-83
2021/12/24 10:04:35;;;;;;;16.42;7.70;;;;;;;9.80;45.12;97489.34;4500757;31;20084;-83
2021/12/24 10:07:03;;;;;;;17.73;7.68;;;;;;;9.92;45.08;97488.44;4478339;31;20116;-86
2021/12/24 10:09:34;;;;;;;19.65;8.48;;;;;;;9.79;44.97;97485.00;4495072;31;20221;-86
2021/12/24 10:12:03;;;;;;;21.30;8.93;;;;;;;10.05;44.77;97491.03;4484577;31;20378;-82
2021/12/24 10:14:37;;;;;;;21.98;9.57;;;;;;;9.99;44.95;97467.81;4475732;31;20085;-81
2021/12/24 10:17:05;;;;;;;19.60;8.93;;;;;;;9.94;45.26;97477.81;4498083;31;20119;-87
2021/12/24 10:19:51;;;;;;;;;;;;;;;9.88;45.43;97475.63;4481298;31;20108;-85
2021/12/24 10:22:18;;;;;;;24.00;9.35;;;;;;;9.72;45.90;97458.34;4489965;31;20039;-84
2021/12/24 10:24:57;;;;;;;21.70;9.50;;;;;;;9.50;46.48;97466.91;4499854;31;20106;-87
2021/12/24 10:27:31;;;;;;;19.37;9.20;;;;;;;9.77;46.39;97466.75;4494610;31;20128;-89
2021/12/24 10:29:56;;;;;;;22.13;10.35;;;;;;;9.77;46.54;97466.75;4487674;32;20109;-83
2021/12/24 10:32:21;;;;;;;26.00;11.10;;;;;;;9.83;47.06;97481.22;4487620;32;20088;-81
2021/12/24 10:34:47;;;;;;;28.65;12.77;;;;;;;9.76;47.44;97477.38;4487423;31;20088;-82
2021/12/24 10:37:31;;;;;;;27.20;11.30;;;;;;;9.72;47.85;97474.12;4485261;32;20131;-85
2021/12/24 10:40:02;;;;;;;23.75;10.85;;;;;;;9.82;47.55;97474.28;4487594;31;20191;-85
2021/12/24 10:42:29;;;;;;;22.33;11.23;;;;;;;9.68;48.40;97472.66;4486420;32;20092;-85
2021/12/24 10:44:56;;;;;;;20.70;10.20;;;;;;;9.71;48.49;97471.59;4485348;32;20135;-85
2021/12/24 10:47:25;;;;;;;24.35;10.80;;;;;;;9.59;48.63;97462.78;4486196;32;20092;-85
2021/12/24 10:50:08;;;;;;;22.25;10.30;;;;;;;9.72;48.79;97470.66;4486570;32;20161;-85
2021/12/24 10:52:58;;;;;;;20.80;10.40;;;;;;;9.53;48.96;97471.13;4486325;32;20111;-85
2021/12/24 10:55:35;;;;;;;29.15;10.50;;;;;;;9.73;48.79;97472.31;4485381;32;20209;-85
2021/12/24 10:58:01;;;;;;;19.98;10.23;;;;;;;9.88;48.87;97476.47;4487132;32;20595;-85
2021/12/24 11:00:35;;;;;;;25.45;10.93;;;;;;;9.85;49.03;97474.06;4487603;32;20123;-85
2021/12/24 11:03:03;;;;;;;22.85;10.60;;;;;;;9.96;48.73;97470.66;4473435;32;20084;-85
2021/12/24 11:05:33;;;;;;;;;;;;;;;9.93;48.96;97478.75;4488014;32;20525;-85
2021/12/24 11:08:00;;;;;;;21.17;10.60;;;;;;;10.14;48.65;97477.19;4487846;32;19973;-85
2021/12/24 11:10:28;;;;;;;23.60;10.75;;;;;;;10.04;48.87;97471.78;4486665;32;20478;-85
2021/12/24 11:13:02;;;;;;;24.65;10.77;;;;;;;10.20;49.01;97474.09;4473446;32;20487;-85
2021/12/24 11:15:37;;;;;;;22.40;10.32;;;;;;;10.27;48.78;97476.28;4487500;32;20076;-85
2021/12/24 11:18:27;;;;;;;25.23;11.02;;;;;;;10.40;48.84;97477.91;4473287;32;20551;-85
2021/12/24 11:20:58;;;;;;;22.45;10.95;;;;;;;10.47;48.78;97475.66;4477665;32;20377;-85
2021/12/24 11:23:26;;;;;;;24.25;11.23;;;;;;;10.25;50.26;97476.38;4487703;32;20080;-85
2021/12/24 11:26:00;;;;;;;23.42;10.38;;;;;;;10.46;50.79;97486.31;4473106;32;20475;-85
2021/12/24 11:28:27;;;;;;;22.30;10.90;;;;;;;10.50;50.98;97488.59;4487357;32;20807;-85
2021/12/24 11:30:58;;;;;;;23.95;11.63;;;;;;;10.40;51.34;97485.81;4486195;32;20117;-85
2021/12/24 11:33:28;;;;;;;25.58;11.57;;;;;;;10.57;51.19;97478.44;4486089;32;20080;-85
2021/12/24 11:35:54;;;;;;;22.80;11.63;;;;;;;10.56;51.66;97489.94;4487337;32;20111;-84
2021/12/24 11:38:25;;;;;;;24.23;11.75;;;;;;;10.53;52.42;97483.09;4487156;32;20096;-85
2021/12/24 11:40:54;;;;;;;25.88;12.05;;;;;;;10.57;53.23;97479.28;4485800;32;20097;-85
2021/12/24 11:43:21;;;;;;;22.98;11.23;;;;;;;10.56;53.58;97474.12;4487189;32;20104;-85
2021/12/24 11:45:46;;;;;;;24.12;11.85;;;;;;;10.65;53.90;97473.44;4487219;32;20439;-84
2021/12/24 11:48:12;;;;;;;24.80;11.38;;;;;;;10.43;54.50;97472.44;4487081;32;20089;-85
2021/12/24 11:50:38;;;;;;;22.95;11.52;;;;;;;10.67;53.83;97470.69;4487146;32;20085;-85
2021/12/24 11:53:08;;;;;;;25.05;11.43;;;;;;;10.81;54.41;97466.03;4472907;32;20076;-85
2021/12/24 11:55:47;;;;;;;22.27;11.15;;;;;;;10.98;54.13;97459.47;4487174;32;20088;-85
2021/12/24 11:58:19;;;;;;;22.10;10.77;;;;;;;11.10;53.96;97448.94;4487306;32;20093;-84
2021/12/24 12:00:47;;;;;;;25.05;10.52;;;;;;;10.95;54.38;97453.59;4485793;32;20087;-84
2021/12/24 12:03:30;;;;;;;21.62;10.57;;;;;;;11.07;54.63;97436.84;4485799;32;20080;-84
2021/12/24 12:05:56;;;;;;;23.05;10.77;;;;;;;11.03;54.41;97443.31;4487129;32;20077;-85
2021/12/24 12:08:27;;;;;;;21.58;10.38;;;;;;;10.97;54.90;97435.84;4487188;32;20364;-85
2021/12/24 12:11:16;;;;;;;21.42;10.65;;;;;;;10.82;55.48;97444.00;4472754;32;20105;-85
2021/12/24 12:13:45;;;;;;;23.08;10.93;;;;;;;10.70;55.39;97447.59;4472849;32;20144;-85
2021/12/24 12:16:32;;;;;;;21.52;10.02;;;;;;;10.54;55.62;97439.16;4487011;32;20098;-85
2021/12/24 12:19:27;;;;;;;20.08;9.95;;;;;;;10.50;55.41;97456.16;4477975;32;20092;-85
2021/12/24 12:25:09;;;;;;;22.02;10.38;;;;;;;10.57;55.83;97463.47;4487009;32;20092;-85
2021/12/24 12:27:57;;;;;;;23.45;11.57;;;;;;;10.47;56.07;97469.53;4487015;32;20081;-85
2021/12/24 12:30:24;;;;;;;23.00;10.93;;;;;;;10.57;55.63;97470.56;4459655;32;20123;-85
2021/12/24 12:32:52;;;;;;;22.87;10.85;;;;;;;10.52;55.96;97460.34;4472627;32;20112;-85
2021/12/24 12:35:18;;;;;;;22.27;10.00;;;;;;;10.65;56.23;97462.06;4486753;32;20084;-85
2021/12/24 12:37:52;;;;;;;24.08;10.70;;;;;;;10.68;56.12;97460.03;4486864;32;20121;-85
2021/12/24 12:40:17;;;;;;;22.15;10.95;;;;;;;10.68;55.85;97461.81;4486388;32;20124;-85
2021/12/24 12:42:48;;;;;;;21.83;10.00;;;;;;;10.49;55.33;97465.88;4486797;32;20440;-85
2021/12/24 12:45:15;;;;;;;23.65;10.77;;;;;;;10.48;55.50;97468.59;4486681;32;20230;-85
2021/12/24 12:47:54;;;;;;;22.90;10.27;;;;;;;10.48;55.79;97468.59;4485725;32;20085;-85
2021/12/24 12:50:20;;;;;;;23.62;10.43;;;;;;;10.43;56.07;97472.44;4486869;32;20096;-85
2021/12/24 12:52:46;;;;;;;22.55;10.35;;;;;;;10.47;55.81;97475.66;4486820;32;20096;-85
2021/12/24 12:55:31;;;;;;;21.87;10.80;;;;;;;10.41;55.95;97465.56;4472495;32;20352;-85
2021/12/24 12:58:24;;;;;;;23.40;10.30;;;;;;;10.15;57.29;97457.81;4486500;32;20105;-85
2021/12/24 13:01:04;;;;;;;23.62;11.18;;;;;;;10.26;57.43;97449.13;4472076;32;20131;-85
2021/12/24 13:03:31;;;;;;;23.20;10.25;;;;;;;10.02;57.70;97468.41;4486004;32;20492;-85
2021/12/24 13:06:04;;;;;;;21.77;9.88;;;;;;;10.21;57.61;97470.50;4486640;32;20156;-85
2021/12/24 13:08:32;;;;;;;21.37;10.15;;;;;;;10.08;58.44;97459.22;4486760;32;20481;-85
2021/12/24 13:11:07;;;;;;;21.58;10.30;;;;;;;10.16;58.27;97458.62;4485388;32;20385;-84